sensor_id;sensor_type;location;lat;lon;timestamp;temperature;humidity
71128;SHT30;59249;59.736;30.568;2023-08-12T00:01:46;18.38;82.47
71128;SHT30;59249;59.736;30.568;2023-08-12T00:04:16;18.33;82.33
71128;SHT30;59249;59.736;30.568;2023-08-12T00:06:45;18.28;82.72
71128;SHT30;59249;59.736;30.568;2023-08-12T00:09:14;18.25;82.90
71128;SHT30;59249;59.736;30.568;2023-08-12T00:11:43;18.26;82.65
71128;SHT30;59249;59.736;30.568;2023-08-12T00:14:12;18.23;82.76
71128;SHT30;59249;59.736;30.568;2023-08-12T00:16:40;18.21;82.68
71128;SHT30;59249;59.736;30.568;2023-08-12T00:19:09;18.17;83.12
71128;SHT30;59249;59.736;30.568;2023-08-12T00:21:40;18.18;82.96
71128;SHT30;59249;59.736;30.568;2023-08-12T00:24:09;18.14;82.67
71128;SHT30;59249;59.736;30.568;2023-08-12T00:26:38;18.14;82.57
71128;SHT30;59249;59.736;30.568;2023-08-12T00:29:06;18.11;82.96
71128;SHT30;59249;59.736;30.568;2023-08-12T00:31:36;18.10;83.12
71128;SHT30;59249;59.736;30.568;2023-08-12T00:34:05;18.10;83.03
71128;SHT30;59249;59.736;30.568;2023-08-12T00:36:34;18.09;82.89
71128;SHT30;59249;59.736;30.568;2023-08-12T00:39:04;18.12;83.07
71128;SHT30;59249;59.736;30.568;2023-08-12T00:41:33;18.10;82.93
71128;SHT30;59249;59.736;30.568;2023-08-12T00:44:03;18.09;83.05
71128;SHT30;59249;59.736;30.568;2023-08-12T00:46:32;18.09;82.84
71128;SHT30;59249;59.736;30.568;2023-08-12T00:49:02;18.12;82.50
71128;SHT30;59249;59.736;30.568;2023-08-12T00:51:31;18.14;82.22
71128;SHT30;59249;59.736;30.568;2023-08-12T00:54:05;18.13;82.16
71128;SHT30;59249;59.736;30.568;2023-08-12T00:56:36;18.14;82.42
71128;SHT30;59249;59.736;30.568;2023-08-12T00:59:07;18.09;82.55
71128;SHT30;59249;59.736;30.568;2023-08-12T01:01:40;18.09;82.50
71128;SHT30;59249;59.736;30.568;2023-08-12T01:04:09;18.10;82.23
71128;SHT30;59249;59.736;30.568;2023-08-12T01:06:38;18.12;82.17
71128;SHT30;59249;59.736;30.568;2023-08-12T01:09:11;18.11;82.11
71128;SHT30;59249;59.736;30.568;2023-08-12T01:11:48;18.15;82.04
71128;SHT30;59249;59.736;30.568;2023-08-12T01:14:23;18.13;81.92
71128;SHT30;59249;59.736;30.568;2023-08-12T01:17:00;18.09;82.46
71128;SHT30;59249;59.736;30.568;2023-08-12T01:19:35;18.07;82.35
71128;SHT30;59249;59.736;30.568;2023-08-12T01:22:10;18.09;82.10
71128;SHT30;59249;59.736;30.568;2023-08-12T01:24:43;18.02;81.94
71128;SHT30;59249;59.736;30.568;2023-08-12T01:27:13;17.98;81.95
71128;SHT30;59249;59.736;30.568;2023-08-12T01:29:46;17.93;82.14
71128;SHT30;59249;59.736;30.568;2023-08-12T01:32:25;17.92;82.20
71128;SHT30;59249;59.736;30.568;2023-08-12T01:35:05;17.86;82.61
71128;SHT30;59249;59.736;30.568;2023-08-12T01:37:38;17.84;82.95
71128;SHT30;59249;59.736;30.568;2023-08-12T01:40:10;17.79;83.00
71128;SHT30;59249;59.736;30.568;2023-08-12T01:42:40;17.74;83.35
71128;SHT30;59249;59.736;30.568;2023-08-12T01:45:10;17.74;83.96
71128;SHT30;59249;59.736;30.568;2023-08-12T01:47:43;17.70;83.94
71128;SHT30;59249;59.736;30.568;2023-08-12T01:50:12;17.67;83.58
71128;SHT30;59249;59.736;30.568;2023-08-12T01:52:41;17.65;83.49
71128;SHT30;59249;59.736;30.568;2023-08-12T01:55:11;17.63;83.70
71128;SHT30;59249;59.736;30.568;2023-08-12T01:57:40;17.56;83.79
71128;SHT30;59249;59.736;30.568;2023-08-12T02:00:09;17.45;83.80
71128;SHT30;59249;59.736;30.568;2023-08-12T02:02:44;17.43;83.76
71128;SHT30;59249;59.736;30.568;2023-08-12T02:05:15;17.42;83.76
71128;SHT30;59249;59.736;30.568;2023-08-12T02:07:43;17.36;84.04
71128;SHT30;59249;59.736;30.568;2023-08-12T02:10:14;17.35;83.91
71128;SHT30;59249;59.736;30.568;2023-08-12T02:12:43;17.30;84.08
71128;SHT30;59249;59.736;30.568;2023-08-12T02:15:12;17.28;84.06
71128;SHT30;59249;59.736;30.568;2023-08-12T02:17:41;17.22;84.39
71128;SHT30;59249;59.736;30.568;2023-08-12T02:20:11;17.17;84.39
71128;SHT30;59249;59.736;30.568;2023-08-12T02:22:40;17.20;84.19
71128;SHT30;59249;59.736;30.568;2023-08-12T02:25:08;17.19;84.25
71128;SHT30;59249;59.736;30.568;2023-08-12T02:27:40;17.19;84.18
71128;SHT30;59249;59.736;30.568;2023-08-12T02:30:10;17.19;84.20
71128;SHT30;59249;59.736;30.568;2023-08-12T02:32:39;17.14;84.13
71128;SHT30;59249;59.736;30.568;2023-08-12T02:35:10;17.18;83.79
71128;SHT30;59249;59.736;30.568;2023-08-12T02:37:39;17.19;83.75
71128;SHT30;59249;59.736;30.568;2023-08-12T02:40:09;17.14;83.75
71128;SHT30;59249;59.736;30.568;2023-08-12T02:42:40;17.23;83.86
71128;SHT30;59249;59.736;30.568;2023-08-12T02:45:09;17.21;83.82
71128;SHT30;59249;59.736;30.568;2023-08-12T02:47:38;17.22;83.99
71128;SHT30;59249;59.736;30.568;2023-08-12T02:50:09;17.19;84.05
71128;SHT30;59249;59.736;30.568;2023-08-12T02:52:37;17.23;84.29
71128;SHT30;59249;59.736;30.568;2023-08-12T02:55:07;17.21;84.28
71128;SHT30;59249;59.736;30.568;2023-08-12T02:57:36;17.26;84.17
71128;SHT30;59249;59.736;30.568;2023-08-12T03:00:08;17.26;84.16
71128;SHT30;59249;59.736;30.568;2023-08-12T03:02:38;17.23;84.15
71128;SHT30;59249;59.736;30.568;2023-08-12T03:05:07;17.11;84.96
71128;SHT30;59249;59.736;30.568;2023-08-12T03:07:36;17.11;84.93
71128;SHT30;59249;59.736;30.568;2023-08-12T03:10:07;17.06;84.90
71128;SHT30;59249;59.736;30.568;2023-08-12T03:12:35;17.02;84.89
71128;SHT30;59249;59.736;30.568;2023-08-12T03:15:07;17.02;85.13
71128;SHT30;59249;59.736;30.568;2023-08-12T03:17:37;17.03;85.35
71128;SHT30;59249;59.736;30.568;2023-08-12T03:20:08;17.02;85.13
71128;SHT30;59249;59.736;30.568;2023-08-12T03:22:37;17.10;85.19
71128;SHT30;59249;59.736;30.568;2023-08-12T03:25:08;17.13;84.95
71128;SHT30;59249;59.736;30.568;2023-08-12T03:27:37;17.23;84.80
71128;SHT30;59249;59.736;30.568;2023-08-12T03:30:11;17.26;84.68
71128;SHT30;59249;59.736;30.568;2023-08-12T03:32:42;17.35;84.38
71128;SHT30;59249;59.736;30.568;2023-08-12T03:35:12;17.44;84.39
71128;SHT30;59249;59.736;30.568;2023-08-12T03:37:42;17.53;83.57
71128;SHT30;59249;59.736;30.568;2023-08-12T03:40:11;17.58;82.67
71128;SHT30;59249;59.736;30.568;2023-08-12T03:42:40;17.74;82.09
71128;SHT30;59249;59.736;30.568;2023-08-12T03:45:11;17.84;81.12
71128;SHT30;59249;59.736;30.568;2023-08-12T03:47:40;17.92;80.74
71128;SHT30;59249;59.736;30.568;2023-08-12T03:50:09;17.91;80.40
71128;SHT30;59249;59.736;30.568;2023-08-12T03:52:38;18.00;80.33
71128;SHT30;59249;59.736;30.568;2023-08-12T03:55:09;17.98;80.15
71128;SHT30;59249;59.736;30.568;2023-08-12T03:57:38;18.03;79.95
71128;SHT30;59249;59.736;30.568;2023-08-12T04:00:08;18.00;79.89
71128;SHT30;59249;59.736;30.568;2023-08-12T04:02:42;18.00;79.77
71128;SHT30;59249;59.736;30.568;2023-08-12T04:05:11;18.09;79.73
71128;SHT30;59249;59.736;30.568;2023-08-12T04:07:40;18.12;79.53
71128;SHT30;59249;59.736;30.568;2023-08-12T04:10:10;18.17;79.44
71128;SHT30;59249;59.736;30.568;2023-08-12T04:12:40;18.17;79.23
71128;SHT30;59249;59.736;30.568;2023-08-12T04:15:10;18.24;79.10
71128;SHT30;59249;59.736;30.568;2023-08-12T04:17:39;18.20;79.26
71128;SHT30;59249;59.736;30.568;2023-08-12T04:20:11;18.22;79.10
71128;SHT30;59249;59.736;30.568;2023-08-12T04:22:39;18.24;79.22
71128;SHT30;59249;59.736;30.568;2023-08-12T04:25:08;18.33;78.82
71128;SHT30;59249;59.736;30.568;2023-08-12T04:27:37;18.33;78.69
71128;SHT30;59249;59.736;30.568;2023-08-12T04:30:08;18.37;78.70
71128;SHT30;59249;59.736;30.568;2023-08-12T04:32:37;18.38;78.72
71128;SHT30;59249;59.736;30.568;2023-08-12T04:35:10;18.50;78.38
71128;SHT30;59249;59.736;30.568;2023-08-12T04:37:39;18.52;78.39
71128;SHT30;59249;59.736;30.568;2023-08-12T04:40:09;18.61;77.99
71128;SHT30;59249;59.736;30.568;2023-08-12T04:42:39;18.69;77.57
71128;SHT30;59249;59.736;30.568;2023-08-12T04:45:09;18.77;77.28
71128;SHT30;59249;59.736;30.568;2023-08-12T04:47:38;18.88;77.17
71128;SHT30;59249;59.736;30.568;2023-08-12T04:50:09;19.06;77.21
71128;SHT30;59249;59.736;30.568;2023-08-12T04:52:38;19.27;76.63
71128;SHT30;59249;59.736;30.568;2023-08-12T04:55:08;19.58;75.69
71128;SHT30;59249;59.736;30.568;2023-08-12T04:57:39;19.79;75.30
71128;SHT30;59249;59.736;30.568;2023-08-12T05:00:09;19.96;74.95
71128;SHT30;59249;59.736;30.568;2023-08-12T05:02:37;20.03;74.57
71128;SHT30;59249;59.736;30.568;2023-08-12T05:05:08;20.13;74.49
71128;SHT30;59249;59.736;30.568;2023-08-12T05:07:38;20.22;73.81
71128;SHT30;59249;59.736;30.568;2023-08-12T05:10:09;20.30;73.43
71128;SHT30;59249;59.736;30.568;2023-08-12T05:12:38;20.40;72.91
71128;SHT30;59249;59.736;30.568;2023-08-12T05:15:08;20.47;71.89
71128;SHT30;59249;59.736;30.568;2023-08-12T05:17:37;20.56;71.95
71128;SHT30;59249;59.736;30.568;2023-08-12T05:20:09;20.52;72.23
71128;SHT30;59249;59.736;30.568;2023-08-12T05:22:39;20.59;71.87
71128;SHT30;59249;59.736;30.568;2023-08-12T05:25:08;20.56;71.73
71128;SHT30;59249;59.736;30.568;2023-08-12T05:27:37;20.62;71.75
71128;SHT30;59249;59.736;30.568;2023-08-12T05:30:07;20.54;72.11
71128;SHT30;59249;59.736;30.568;2023-08-12T05:32:36;20.59;72.16
71128;SHT30;59249;59.736;30.568;2023-08-12T05:35:06;20.56;72.21
71128;SHT30;59249;59.736;30.568;2023-08-12T05:37:34;20.46;72.40
71128;SHT30;59249;59.736;30.568;2023-08-12T05:40:07;20.38;72.71
71128;SHT30;59249;59.736;30.568;2023-08-12T05:42:36;20.31;73.20
71128;SHT30;59249;59.736;30.568;2023-08-12T05:45:07;20.27;73.53
71128;SHT30;59249;59.736;30.568;2023-08-12T05:47:35;20.23;73.79
71128;SHT30;59249;59.736;30.568;2023-08-12T05:50:05;20.09;74.35
71128;SHT30;59249;59.736;30.568;2023-08-12T05:52:35;19.98;75.18
71128;SHT30;59249;59.736;30.568;2023-08-12T05:55:06;20.00;75.17
71128;SHT30;59249;59.736;30.568;2023-08-12T05:57:35;20.05;75.29
71128;SHT30;59249;59.736;30.568;2023-08-12T06:00:06;20.09;75.48
71128;SHT30;59249;59.736;30.568;2023-08-12T06:02:38;20.24;75.41
71128;SHT30;59249;59.736;30.568;2023-08-12T06:05:08;20.36;75.64
71128;SHT30;59249;59.736;30.568;2023-08-12T06:07:38;20.47;74.85
71128;SHT30;59249;59.736;30.568;2023-08-12T06:10:09;20.53;74.96
71128;SHT30;59249;59.736;30.568;2023-08-12T06:12:38;20.54;74.45
71128;SHT30;59249;59.736;30.568;2023-08-12T06:15:08;20.67;73.96
71128;SHT30;59249;59.736;30.568;2023-08-12T06:17:37;20.82;73.58
71128;SHT30;59249;59.736;30.568;2023-08-12T06:20:07;20.89;73.04
71128;SHT30;59249;59.736;30.568;2023-08-12T06:22:36;20.93;72.75
71128;SHT30;59249;59.736;30.568;2023-08-12T06:25:05;20.96;72.66
71128;SHT30;59249;59.736;30.568;2023-08-12T06:27:39;20.89;72.65
71128;SHT30;59249;59.736;30.568;2023-08-12T06:30:09;20.95;72.79
71128;SHT30;59249;59.736;30.568;2023-08-12T06:32:39;20.95;72.73
71128;SHT30;59249;59.736;30.568;2023-08-12T06:35:08;20.89;72.64
71128;SHT30;59249;59.736;30.568;2023-08-12T06:37:37;20.91;72.73
71128;SHT30;59249;59.736;30.568;2023-08-12T06:40:07;20.88;73.29
71128;SHT30;59249;59.736;30.568;2023-08-12T06:42:38;20.80;73.77
71128;SHT30;59249;59.736;30.568;2023-08-12T06:45:09;20.84;73.83
71128;SHT30;59249;59.736;30.568;2023-08-12T06:47:38;20.89;73.95
71128;SHT30;59249;59.736;30.568;2023-08-12T06:50:08;21.01;73.45
71128;SHT30;59249;59.736;30.568;2023-08-12T06:52:37;21.06;73.20
71128;SHT30;59249;59.736;30.568;2023-08-12T06:55:06;21.09;72.95
71128;SHT30;59249;59.736;30.568;2023-08-12T06:57:35;21.15;72.90
71128;SHT30;59249;59.736;30.568;2023-08-12T07:00:09;21.15;72.47
71128;SHT30;59249;59.736;30.568;2023-08-12T07:02:38;21.16;73.11
71128;SHT30;59249;59.736;30.568;2023-08-12T07:05:10;21.23;73.01
71128;SHT30;59249;59.736;30.568;2023-08-12T07:07:38;21.31;72.80
71128;SHT30;59249;59.736;30.568;2023-08-12T07:10:08;21.41;72.17
71128;SHT30;59249;59.736;30.568;2023-08-12T07:12:37;21.51;71.80
71128;SHT30;59249;59.736;30.568;2023-08-12T07:15:09;21.61;71.42
71128;SHT30;59249;59.736;30.568;2023-08-12T07:17:39;21.61;71.18
71128;SHT30;59249;59.736;30.568;2023-08-12T07:20:08;21.66;70.68
71128;SHT30;59249;59.736;30.568;2023-08-12T07:22:37;21.68;70.58
71128;SHT30;59249;59.736;30.568;2023-08-12T07:25:07;21.68;70.06
71128;SHT30;59249;59.736;30.568;2023-08-12T07:27:36;21.70;69.16
71128;SHT30;59249;59.736;30.568;2023-08-12T07:30:08;21.65;67.77
71128;SHT30;59249;59.736;30.568;2023-08-12T07:32:38;21.63;68.23
71128;SHT30;59249;59.736;30.568;2023-08-12T07:35:08;21.70;68.01
71128;SHT30;59249;59.736;30.568;2023-08-12T07:37:38;21.69;67.76
71128;SHT30;59249;59.736;30.568;2023-08-12T07:40:08;21.70;67.98
71128;SHT30;59249;59.736;30.568;2023-08-12T07:42:37;21.74;67.83
71128;SHT30;59249;59.736;30.568;2023-08-12T07:45:09;21.78;67.46
71128;SHT30;59249;59.736;30.568;2023-08-12T07:47:38;21.82;67.37
71128;SHT30;59249;59.736;30.568;2023-08-12T07:50:08;21.75;67.08
71128;SHT30;59249;59.736;30.568;2023-08-12T07:52:38;21.74;66.75
71128;SHT30;59249;59.736;30.568;2023-08-12T07:55:07;21.76;67.13
71128;SHT30;59249;59.736;30.568;2023-08-12T07:57:36;21.79;66.96
71128;SHT30;59249;59.736;30.568;2023-08-12T08:00:08;21.89;66.55
71128;SHT30;59249;59.736;30.568;2023-08-12T08:02:38;21.92;65.79
71128;SHT30;59249;59.736;30.568;2023-08-12T08:05:07;21.92;65.24
71128;SHT30;59249;59.736;30.568;2023-08-12T08:07:36;21.93;65.35
71128;SHT30;59249;59.736;30.568;2023-08-12T08:10:06;22.01;65.25
71128;SHT30;59249;59.736;30.568;2023-08-12T08:12:35;22.03;64.56
71128;SHT30;59249;59.736;30.568;2023-08-12T08:15:06;22.18;64.85
71128;SHT30;59249;59.736;30.568;2023-08-12T08:17:36;22.26;64.03
71128;SHT30;59249;59.736;30.568;2023-08-12T08:20:06;22.24;63.69
71128;SHT30;59249;59.736;30.568;2023-08-12T08:22:35;22.21;64.03
71128;SHT30;59249;59.736;30.568;2023-08-12T08:25:05;22.21;64.03
71128;SHT30;59249;59.736;30.568;2023-08-12T08:27:34;22.33;63.98
71128;SHT30;59249;59.736;30.568;2023-08-12T08:30:04;22.36;64.21
71128;SHT30;59249;59.736;30.568;2023-08-12T08:32:33;22.47;64.15
71128;SHT30;59249;59.736;30.568;2023-08-12T08:35:04;22.52;64.34
71128;SHT30;59249;59.736;30.568;2023-08-12T08:37:34;22.46;64.54
71128;SHT30;59249;59.736;30.568;2023-08-12T08:40:03;22.54;64.60
71128;SHT30;59249;59.736;30.568;2023-08-12T08:42:34;22.68;64.21
71128;SHT30;59249;59.736;30.568;2023-08-12T08:45:12;22.78;63.61
71128;SHT30;59249;59.736;30.568;2023-08-12T08:47:42;22.88;63.22
71128;SHT30;59249;59.736;30.568;2023-08-12T08:50:13;22.95;63.08
71128;SHT30;59249;59.736;30.568;2023-08-12T08:52:43;23.00;62.86
71128;SHT30;59249;59.736;30.568;2023-08-12T08:55:12;23.02;62.46
71128;SHT30;59249;59.736;30.568;2023-08-12T08:58:01;23.05;62.13
71128;SHT30;59249;59.736;30.568;2023-08-12T09:00:32;23.06;62.13
71128;SHT30;59249;59.736;30.568;2023-08-12T09:03:05;23.10;61.92
71128;SHT30;59249;59.736;30.568;2023-08-12T09:05:36;23.08;61.90
71128;SHT30;59249;59.736;30.568;2023-08-12T09:08:07;23.10;61.64
71128;SHT30;59249;59.736;30.568;2023-08-12T09:10:39;23.19;62.00
71128;SHT30;59249;59.736;30.568;2023-08-12T09:13:08;23.28;60.60
71128;SHT30;59249;59.736;30.568;2023-08-12T09:15:37;23.34;61.00
71128;SHT30;59249;59.736;30.568;2023-08-12T09:18:06;23.41;61.83
71128;SHT30;59249;59.736;30.568;2023-08-12T09:20:37;23.50;61.17
71128;SHT30;59249;59.736;30.568;2023-08-12T09:23:07;23.57;61.28
71128;SHT30;59249;59.736;30.568;2023-08-12T09:25:42;23.72;61.11
71128;SHT30;59249;59.736;30.568;2023-08-12T09:28:12;23.81;60.68
71128;SHT30;59249;59.736;30.568;2023-08-12T09:30:42;23.78;60.65
71128;SHT30;59249;59.736;30.568;2023-08-12T09:33:11;23.66;60.54
71128;SHT30;59249;59.736;30.568;2023-08-12T09:35:41;23.58;60.87
71128;SHT30;59249;59.736;30.568;2023-08-12T09:38:13;23.62;61.02
71128;SHT30;59249;59.736;30.568;2023-08-12T09:40:42;23.72;61.04
71128;SHT30;59249;59.736;30.568;2023-08-12T09:43:12;23.94;60.49
71128;SHT30;59249;59.736;30.568;2023-08-12T09:45:45;24.11;59.75
71128;SHT30;59249;59.736;30.568;2023-08-12T09:48:16;24.36;59.61
71128;SHT30;59249;59.736;30.568;2023-08-12T09:50:47;24.61;58.55
71128;SHT30;59249;59.736;30.568;2023-08-12T09:53:19;24.72;57.92
71128;SHT30;59249;59.736;30.568;2023-08-12T09:55:48;24.80;57.83
71128;SHT30;59249;59.736;30.568;2023-08-12T09:58:23;24.65;57.85
71128;SHT30;59249;59.736;30.568;2023-08-12T10:00:53;24.52;58.42
71128;SHT30;59249;59.736;30.568;2023-08-12T10:03:24;24.39;58.70
71128;SHT30;59249;59.736;30.568;2023-08-12T10:05:55;24.51;58.39
71128;SHT30;59249;59.736;30.568;2023-08-12T10:08:27;24.67;57.81
71128;SHT30;59249;59.736;30.568;2023-08-12T10:11:02;24.73;57.75
71128;SHT30;59249;59.736;30.568;2023-08-12T10:13:41;24.73;57.47
71128;SHT30;59249;59.736;30.568;2023-08-12T10:16:10;24.88;57.44
71128;SHT30;59249;59.736;30.568;2023-08-12T10:18:41;25.02;57.06
71128;SHT30;59249;59.736;30.568;2023-08-12T10:21:14;24.83;56.80
71128;SHT30;59249;59.736;30.568;2023-08-12T10:23:47;24.76;56.98
71128;SHT30;59249;59.736;30.568;2023-08-12T10:26:37;24.71;53.48
71128;SHT30;59249;59.736;30.568;2023-08-12T10:29:07;24.47;53.01
71128;SHT30;59249;59.736;30.568;2023-08-12T10:31:47;24.05;53.90
71128;SHT30;59249;59.736;30.568;2023-08-12T10:34:22;24.20;54.54
71128;SHT30;59249;59.736;30.568;2023-08-12T10:36:57;24.32;54.76
71128;SHT30;59249;59.736;30.568;2023-08-12T10:39:42;24.36;54.90
71128;SHT30;59249;59.736;30.568;2023-08-12T10:42:41;24.55;54.79
71128;SHT30;59249;59.736;30.568;2023-08-12T10:45:12;24.63;54.01
71128;SHT30;59249;59.736;30.568;2023-08-12T10:47:48;24.72;52.38
71128;SHT30;59249;59.736;30.568;2023-08-12T10:50:19;24.73;52.16
71128;SHT30;59249;59.736;30.568;2023-08-12T10:52:54;24.71;54.26
71128;SHT30;59249;59.736;30.568;2023-08-12T10:55:25;24.74;54.82
71128;SHT30;59249;59.736;30.568;2023-08-12T10:57:58;24.81;54.95
71128;SHT30;59249;59.736;30.568;2023-08-12T11:00:29;24.86;54.61
71128;SHT30;59249;59.736;30.568;2023-08-12T11:02:58;24.89;54.34
71128;SHT30;59249;59.736;30.568;2023-08-12T11:05:36;25.04;53.28
71128;SHT30;59249;59.736;30.568;2023-08-12T11:08:07;24.96;53.18
71128;SHT30;59249;59.736;30.568;2023-08-12T11:10:37;25.13;53.14
71128;SHT30;59249;59.736;30.568;2023-08-12T11:13:09;24.99;53.36
71128;SHT30;59249;59.736;30.568;2023-08-12T11:15:43;25.04;54.00
71128;SHT30;59249;59.736;30.568;2023-08-12T11:18:17;25.15;53.81
71128;SHT30;59249;59.736;30.568;2023-08-12T11:20:51;25.11;53.81
71128;SHT30;59249;59.736;30.568;2023-08-12T11:23:22;25.06;54.15
71128;SHT30;59249;59.736;30.568;2023-08-12T11:25:52;25.05;54.27
71128;SHT30;59249;59.736;30.568;2023-08-12T11:28:21;25.05;53.53
71128;SHT30;59249;59.736;30.568;2023-08-12T11:30:50;25.04;54.03
71128;SHT30;59249;59.736;30.568;2023-08-12T11:33:19;25.07;54.18
71128;SHT30;59249;59.736;30.568;2023-08-12T11:35:49;25.34;53.41
71128;SHT30;59249;59.736;30.568;2023-08-12T11:38:25;25.58;53.35
71128;SHT30;59249;59.736;30.568;2023-08-12T11:40:54;25.63;53.08
71128;SHT30;59249;59.736;30.568;2023-08-12T11:43:23;25.66;53.65
71128;SHT30;59249;59.736;30.568;2023-08-12T11:45:59;25.62;53.49
71128;SHT30;59249;59.736;30.568;2023-08-12T11:48:28;25.63;54.02
71128;SHT30;59249;59.736;30.568;2023-08-12T11:50:57;25.90;53.90
71128;SHT30;59249;59.736;30.568;2023-08-12T11:53:28;26.00;53.12
71128;SHT30;59249;59.736;30.568;2023-08-12T11:55:57;26.03;53.18
71128;SHT30;59249;59.736;30.568;2023-08-12T11:58:26;25.74;54.17
71128;SHT30;59249;59.736;30.568;2023-08-12T12:01:10;25.35;55.14
71128;SHT30;59249;59.736;30.568;2023-08-12T12:03:38;25.07;56.05
71128;SHT30;59249;59.736;30.568;2023-08-12T12:06:07;24.83;56.35
71128;SHT30;59249;59.736;30.568;2023-08-12T12:08:38;24.80;56.68
71128;SHT30;59249;59.736;30.568;2023-08-12T12:11:07;25.08;56.94
71128;SHT30;59249;59.736;30.568;2023-08-12T12:13:37;25.38;54.91
71128;SHT30;59249;59.736;30.568;2023-08-12T12:16:10;25.46;55.65
71128;SHT30;59249;59.736;30.568;2023-08-12T12:18:39;25.62;55.60
71128;SHT30;59249;59.736;30.568;2023-08-12T12:21:08;25.46;55.71
71128;SHT30;59249;59.736;30.568;2023-08-12T12:23:40;25.59;56.41
71128;SHT30;59249;59.736;30.568;2023-08-12T12:26:10;25.86;56.12
71128;SHT30;59249;59.736;30.568;2023-08-12T12:28:38;26.07;55.17
71128;SHT30;59249;59.736;30.568;2023-08-12T12:31:07;26.01;54.62
71128;SHT30;59249;59.736;30.568;2023-08-12T12:33:36;25.80;55.25
71128;SHT30;59249;59.736;30.568;2023-08-12T12:36:05;25.85;54.98
71128;SHT30;59249;59.736;30.568;2023-08-12T12:38:34;25.79;54.91
71128;SHT30;59249;59.736;30.568;2023-08-12T12:41:04;25.85;54.83
71128;SHT30;59249;59.736;30.568;2023-08-12T12:43:33;25.61;55.40
71128;SHT30;59249;59.736;30.568;2023-08-12T12:46:05;25.57;55.54
71128;SHT30;59249;59.736;30.568;2023-08-12T12:48:38;25.48;55.44
71128;SHT30;59249;59.736;30.568;2023-08-12T12:51:08;25.48;55.72
71128;SHT30;59249;59.736;30.568;2023-08-12T12:53:37;25.61;55.77
71128;SHT30;59249;59.736;30.568;2023-08-12T12:56:07;25.60;55.38
71128;SHT30;59249;59.736;30.568;2023-08-12T12:58:37;25.64;55.14
71128;SHT30;59249;59.736;30.568;2023-08-12T13:01:07;25.64;55.37
71128;SHT30;59249;59.736;30.568;2023-08-12T13:03:36;25.30;55.84
71128;SHT30;59249;59.736;30.568;2023-08-12T13:06:06;25.31;55.98
71128;SHT30;59249;59.736;30.568;2023-08-12T13:08:35;25.31;56.02
71128;SHT30;59249;59.736;30.568;2023-08-12T13:11:04;25.17;55.93
71128;SHT30;59249;59.736;30.568;2023-08-12T13:13:34;25.06;56.27
71128;SHT30;59249;59.736;30.568;2023-08-12T13:16:03;25.04;57.07
71128;SHT30;59249;59.736;30.568;2023-08-12T13:18:32;25.06;56.35
71128;SHT30;59249;59.736;30.568;2023-08-12T13:21:01;25.08;56.75
71128;SHT30;59249;59.736;30.568;2023-08-12T13:23:32;25.18;56.97
71128;SHT30;59249;59.736;30.568;2023-08-12T13:26:01;25.29;55.71
71128;SHT30;59249;59.736;30.568;2023-08-12T13:28:30;25.19;56.56
71128;SHT30;59249;59.736;30.568;2023-08-12T13:31:00;25.08;56.83
71128;SHT30;59249;59.736;30.568;2023-08-12T13:33:29;24.87;57.81
71128;SHT30;59249;59.736;30.568;2023-08-12T13:35:58;24.90;57.38
71128;SHT30;59249;59.736;30.568;2023-08-12T13:38:27;24.88;57.64
71128;SHT30;59249;59.736;30.568;2023-08-12T13:40:55;24.86;58.15
71128;SHT30;59249;59.736;30.568;2023-08-12T13:43:24;24.87;57.07
71128;SHT30;59249;59.736;30.568;2023-08-12T13:45:56;24.86;57.59
71128;SHT30;59249;59.736;30.568;2023-08-12T13:48:26;24.91;57.65
71128;SHT30;59249;59.736;30.568;2023-08-12T13:50:56;24.84;57.39
71128;SHT30;59249;59.736;30.568;2023-08-12T13:53:28;24.84;57.38
71128;SHT30;59249;59.736;30.568;2023-08-12T13:55:57;24.67;58.14
71128;SHT30;59249;59.736;30.568;2023-08-12T13:58:25;24.73;57.73
71128;SHT30;59249;59.736;30.568;2023-08-12T14:00:54;24.82;57.76
71128;SHT30;59249;59.736;30.568;2023-08-12T14:03:23;24.88;57.83
71128;SHT30;59249;59.736;30.568;2023-08-12T14:05:53;24.90;57.30
71128;SHT30;59249;59.736;30.568;2023-08-12T14:08:22;24.88;56.88
71128;SHT30;59249;59.736;30.568;2023-08-12T14:10:51;24.76;57.07
71128;SHT30;59249;59.736;30.568;2023-08-12T14:13:20;24.87;56.96
71128;SHT30;59249;59.736;30.568;2023-08-12T14:15:49;24.83;57.09
71128;SHT30;59249;59.736;30.568;2023-08-12T14:18:18;24.86;56.27
71128;SHT30;59249;59.736;30.568;2023-08-12T14:20:47;24.86;56.37
71128;SHT30;59249;59.736;30.568;2023-08-12T14:23:17;24.85;56.88
71128;SHT30;59249;59.736;30.568;2023-08-12T14:25:46;24.85;57.14
71128;SHT30;59249;59.736;30.568;2023-08-12T14:28:15;24.95;56.38
71128;SHT30;59249;59.736;30.568;2023-08-12T14:30:44;24.95;55.90
71128;SHT30;59249;59.736;30.568;2023-08-12T14:33:13;24.97;55.80
71128;SHT30;59249;59.736;30.568;2023-08-12T14:35:42;25.22;54.70
71128;SHT30;59249;59.736;30.568;2023-08-12T14:38:12;25.32;54.83
71128;SHT30;59249;59.736;30.568;2023-08-12T14:40:48;25.49;54.13
71128;SHT30;59249;59.736;30.568;2023-08-12T14:43:17;25.59;53.92
71128;SHT30;59249;59.736;30.568;2023-08-12T14:45:50;25.77;53.99
71128;SHT30;59249;59.736;30.568;2023-08-12T14:48:18;25.90;54.37
71128;SHT30;59249;59.736;30.568;2023-08-12T14:50:47;26.03;53.33
71128;SHT30;59249;59.736;30.568;2023-08-12T14:53:18;26.31;52.50
71128;SHT30;59249;59.736;30.568;2023-08-12T14:56:00;26.41;52.12
71128;SHT30;59249;59.736;30.568;2023-08-12T14:58:28;26.26;53.11
71128;SHT30;59249;59.736;30.568;2023-08-12T15:00:57;26.25;51.92
71128;SHT30;59249;59.736;30.568;2023-08-12T15:03:28;26.14;52.42
71128;SHT30;59249;59.736;30.568;2023-08-12T15:06:00;26.24;51.90
71128;SHT30;59249;59.736;30.568;2023-08-12T15:08:31;26.35;51.51
71128;SHT30;59249;59.736;30.568;2023-08-12T15:11:05;26.21;51.56
71128;SHT30;59249;59.736;30.568;2023-08-12T15:13:36;26.26;51.15
71128;SHT30;59249;59.736;30.568;2023-08-12T15:16:05;26.31;50.65
71128;SHT30;59249;59.736;30.568;2023-08-12T15:18:41;26.22;50.56
71128;SHT30;59249;59.736;30.568;2023-08-12T15:21:18;26.37;50.79
71128;SHT30;59249;59.736;30.568;2023-08-12T15:23:47;26.25;50.48
71128;SHT30;59249;59.736;30.568;2023-08-12T15:26:27;26.28;50.62
71128;SHT30;59249;59.736;30.568;2023-08-12T15:29:11;26.26;50.69
71128;SHT30;59249;59.736;30.568;2023-08-12T15:31:40;26.17;51.08
71128;SHT30;59249;59.736;30.568;2023-08-12T15:34:09;26.19;51.23
71128;SHT30;59249;59.736;30.568;2023-08-12T15:36:38;26.32;50.84